Time;durP1;ratioP1;P1;durP2;ratioP2;P2;SDS_P1;SDS_P2;PMS_P1;PMS_P2;Temp;Humidity;BMP_temperature;BMP_pressure;BME280_temperature;BME280_humidity;BME280_pressure;Samples;Min_cycle;Max_cycle;Signal;HPM_P1;HPM_P2
2022/08/07 00:01:17;;;;;;;6.37;2.80;;;;;;;;;;4956742;29;20194;-75
2022/08/07 00:04:06;;;;;;;4.73;2.80;;;;;;;;;;4956831;28;20211;-75
2022/08/07 00:06:37;;;;;;;3.73;2.97;;;;;;;;;;4956647;28;20302;-75
2022/08/07 00:09:19;;;;;;;2.93;2.73;;;;;;;;;;4956503;28;20226;-75
2022/08/07 00:11:49;;;;;;;3.30;3.00;;;;;;;;;;4956610;28;20206;-75
2022/08/07 00:14:29;;;;;;;3.53;3.23;;;;;;;;;;4956849;28;20194;-75
2022/08/07 00:17:00;;;;;;;4.40;3.00;;;;;;;;;;4956446;28;20195;-75
2022/08/07 00:19:30;;;;;;;3.43;3.13;;;;;;;;;;4956323;28;20222;-75
2022/08/07 00:22:18;;;;;;;6.40;3.67;;;;;;;;;;4956261;28;20332;-75
2022/08/07 00:25:03;;;;;;;3.27;2.97;;;;;;;;;;4955969;28;20286;-75
2022/08/07 00:27:32;;;;;;;3.70;2.83;;;;;;;;;;4956197;28;20241;-75
2022/08/07 00:30:20;;;;;;;3.90;3.00;;;;;;;;;;4956257;28;20210;-75
2022/08/07 00:32:57;;;;;;;3.93;3.17;;;;;;;;;;4956241;28;20229;-75
2022/08/07 00:35:26;;;;;;;3.50;3.20;;;;;;;;;;4956346;28;20190;-75
2022/08/07 00:37:57;;;;;;;5.60;3.47;;;;;;;;;;4956066;28;20230;-75
2022/08/07 00:40:26;;;;;;;4.10;3.70;;;;;;;;;;4956267;28;20207;-75
2022/08/07 00:43:08;;;;;;;4.57;3.90;;;;;;;;;;4956262;28;20586;-75
2022/08/07 00:45:38;;;;;;;3.87;3.50;;;;;;;;;;4956292;28;20575;-75
2022/08/07 00:48:08;;;;;;;3.80;3.50;;;;;;;;;;4956300;28;20742;-75
2022/08/07 00:50:38;;;;;;;3.53;3.23;;;;;;;;;;4956382;28;20191;-75
2022/08/07 00:53:18;;;;;;;3.80;3.50;;;;;;;;;;4956106;28;20201;-75
2022/08/07 00:55:48;;;;;;;3.50;3.23;;;;;;;;;;4955739;28;20237;-75
2022/08/07 00:58:31;;;;;;;5.00;3.00;;;;;;;;;;4954252;28;20324;-75
2022/08/07 01:00:59;;;;;;;4.17;2.90;;;;;;;;;;4955399;28;20270;-75
2022/08/07 01:03:29;;;;;;;3.80;3.03;;;;;;;;;;4955286;28;20219;-74
2022/08/07 01:06:18;;;;;;;3.50;3.20;;;;;;;;;;4955598;28;20225;-75
2022/08/07 01:08:49;;;;;;;4.23;3.17;;;;;;;;;;4955354;28;20234;-75
2022/08/07 01:11:21;;;;;;;3.43;3.13;;;;;;;;;;4955942;28;20562;-75
2022/08/07 01:14:09;;;;;;;4.30;3.57;;;;;;;;;;4955535;28;20652;-75
2022/08/07 01:16:38;;;;;;;3.53;3.23;;;;;;;;;;4955355;28;20202;-75
2022/08/07 01:19:15;;;;;;;3.67;3.37;;;;;;;;;;4955186;28;20252;-75
2022/08/07 01:21:49;;;;;;;4.77;3.40;;;;;;;;;;4955621;28;20234;-75
2022/08/07 01:24:21;;;;;;;4.20;3.40;;;;;;;;;;4955629;28;20195;-75
2022/08/07 01:26:50;;;;;;;3.63;3.00;;;;;;;;;;4955574;28;20210;-75
2022/08/07 01:29:21;;;;;;;4.10;3.30;;;;;;;;;;4955473;28;20223;-75
2022/08/07 01:31:50;;;;;;;3.50;3.20;;;;;;;;;;4955532;28;20218;-75
2022/08/07 01:34:19;;;;;;;3.63;3.30;;;;;;;;;;4955223;28;20257;-75
2022/08/07 01:36:59;;;;;;;3.23;3.00;;;;;;;;;;4955695;28;20209;-75
2022/08/07 01:39:28;;;;;;;3.63;3.33;;;;;;;;;;4955463;28;20230;-75
2022/08/07 01:42:14;;;;;;;3.43;3.13;;;;;;;;;;4955647;28;20616;-75
2022/08/07 01:45:09;;;;;;;3.77;3.47;;;;;;;;;;4955278;28;20257;-75
2022/08/07 01:47:45;;;;;;;3.73;3.43;;;;;;;;;;4955352;28;20647;-75
2022/08/07 01:50:35;;;;;;;4.00;3.60;;;;;;;;;;4955061;29;20207;-75
2022/08/07 01:53:06;;;;;;;3.63;3.33;;;;;;;;;;4955401;28;20214;-75
2022/08/07 01:55:38;;;;;;;4.20;3.47;;;;;;;;;;4955110;28;20190;-75
2022/08/07 01:58:09;;;;;;;3.53;3.20;;;;;;;;;;4955497;28;20245;-75
2022/08/07 02:00:59;;;;;;;3.50;3.20;;;;;;;;;;4955476;28;20218;-74
2022/08/07 02:03:52;;;;;;;5.00;3.50;;;;;;;;;;4954803;28;20210;-75
2022/08/07 02:06:21;;;;;;;4.83;3.40;;;;;;;;;;4955287;28;20226;-74
2022/08/07 02:09:02;;;;;;;3.80;2.93;;;;;;;;;;4955044;28;20222;-75
2022/08/07 02:11:33;;;;;;;4.57;3.57;;;;;;;;;;4955290;28;20223;-75
2022/08/07 02:14:22;;;;;;;5.50;4.40;;;;;;;;;;4955115;28;20265;-75
2022/08/07 02:17:08;;;;;;;4.57;4.17;;;;;;;;;;4955120;28;20202;-75
2022/08/07 02:19:39;;;;;;;4.80;4.30;;;;;;;;;;4955298;28;20239;-74
2022/08/07 02:22:29;;;;;;;5.87;4.60;;;;;;;;;;4958596;28;20616;-75
2022/08/07 02:25:00;;;;;;;5.90;4.77;;;;;;;;;;4959135;28;20231;-75
2022/08/07 02:27:34;;;;;;;4.87;4.37;;;;;;;;;;4958890;28;20710;-75
2022/08/07 02:30:09;;;;;;;4.50;3.83;;;;;;;;;;4958505;28;20223;-75
2022/08/07 02:32:41;;;;;;;4.50;3.50;;;;;;;;;;4958811;28;20699;-75
2022/08/07 02:35:31;;;;;;;4.40;3.97;;;;;;;;;;4958600;28;20627;-74
2022/08/07 02:38:20;;;;;;;4.47;3.43;;;;;;;;;;4958292;28;20229;-74
2022/08/07 02:40:57;;;;;;;6.23;4.20;;;;;;;;;;4958547;28;20191;-74
2022/08/07 02:43:27;;;;;;;5.97;4.30;;;;;;;;;;4958465;28;20191;-75
2022/08/07 02:45:57;;;;;;;5.63;3.93;;;;;;;;;;4958466;28;20218;-74
2022/08/07 02:48:30;;;;;;;4.47;3.80;;;;;;;;;;4958253;28;20286;-75
2022/08/07 02:51:00;;;;;;;6.33;4.50;;;;;;;;;;4958366;28;20218;-74
2022/08/07 02:53:32;;;;;;;4.43;4.03;;;;;;;;;;4958211;29;20209;-75
2022/08/07 02:56:09;;;;;;;5.57;4.20;;;;;;;;;;4958243;28;20225;-75
2022/08/07 02:58:50;;;;;;;5.37;4.77;;;;;;;;;;4958070;28;20234;-74
2022/08/07 03:01:22;;;;;;;5.93;4.23;;;;;;;;;;4957945;28;20210;-75
2022/08/07 03:04:04;;;;;;;4.53;4.17;;;;;;;;;;4957820;28;20218;-75
2022/08/07 03:06:40;;;;;;;4.90;4.00;;;;;;;;;;4957866;28;20201;-75
2022/08/07 03:09:12;;;;;;;4.67;3.80;;;;;;;;;;4957830;28;20222;-75
2022/08/07 03:11:42;;;;;;;4.30;3.90;;;;;;;;;;4957989;28;20211;-74
2022/08/07 03:14:25;;;;;;;4.10;3.67;;;;;;;;;;4957836;28;20281;-75
2022/08/07 03:16:55;;;;;;;5.77;4.13;;;;;;;;;;4957607;28;20204;-75
2022/08/07 03:19:24;;;;;;;5.07;4.50;;;;;;;;;;4957450;28;20222;-74
2022/08/07 03:22:05;;;;;;;4.70;4.30;;;;;;;;;;4957740;28;20308;-74
2022/08/07 03:24:34;;;;;;;5.17;4.70;;;;;;;;;;4957936;28;20201;-75
2022/08/07 03:27:06;;;;;;;6.77;4.90;;;;;;;;;;4957314;28;20228;-75
2022/08/07 03:29:38;;;;;;;4.93;4.43;;;;;;;;;;4957465;28;20225;-75
2022/08/07 03:32:17;;;;;;;5.63;5.07;;;;;;;;;;4957173;28;20217;-75
2022/08/07 03:34:47;;;;;;;5.93;4.83;;;;;;;;;;4957272;28;20216;-74
2022/08/07 03:37:36;;;;;;;5.70;5.20;;;;;;;;;;4957376;28;20601;-75
2022/08/07 03:40:22;;;;;;;6.33;4.97;;;;;;;;;;4957514;28;20692;-75
2022/08/07 03:42:56;;;;;;;5.87;5.27;;;;;;;;;;4957208;28;20249;-75
2022/08/07 03:45:26;;;;;;;5.47;4.97;;;;;;;;;;4957385;28;20245;-74
2022/08/07 03:47:58;;;;;;;5.63;4.63;;;;;;;;;;4957209;28;20757;-75
2022/08/07 03:50:27;;;;;;;7.33;4.70;;;;;;;;;;4957159;28;20614;-75
2022/08/07 03:52:57;;;;;;;6.20;4.63;;;;;;;;;;4957236;28;20217;-75
2022/08/07 03:55:27;;;;;;;5.87;5.13;;;;;;;;;;4956845;28;20206;-75
2022/08/07 03:58:17;;;;;;;5.83;5.23;;;;;;;;;;4957082;28;20226;-75
2022/08/07 04:01:05;;;;;;;6.13;4.83;;;;;;;;;;4957015;28;20202;-75
2022/08/07 04:03:38;;;;;;;5.03;4.53;;;;;;;;;;4956902;28;20224;-75
2022/08/07 04:06:22;;;;;;;6.50;4.90;;;;;;;;;;4956822;28;20190;-75
2022/08/07 04:09:05;;;;;;;5.23;4.33;;;;;;;;;;4956772;28;20260;-75
2022/08/07 04:11:42;;;;;;;5.40;4.90;;;;;;;;;;4957077;28;20186;-74
2022/08/07 04:14:32;;;;;;;5.90;5.27;;;;;;;;;;4957281;28;20567;-75
2022/08/07 04:17:11;;;;;;;5.53;5.03;;;;;;;;;;4956822;28;20218;-75
2022/08/07 04:19:49;;;;;;;5.37;4.87;;;;;;;;;;4956608;28;20235;-75
2022/08/07 04:22:22;;;;;;;5.50;5.00;;;;;;;;;;4957005;28;20202;-75
2022/08/07 04:24:57;;;;;;;5.63;5.07;;;;;;;;;;4956746;28;20186;-75
2022/08/07 04:27:26;;;;;;;6.23;5.43;;;;;;;;;;4956375;28;20262;-75
2022/08/07 04:29:56;;;;;;;6.20;5.57;;;;;;;;;;4956443;28;20206;-75
2022/08/07 04:32:31;;;;;;;5.77;5.13;;;;;;;;;;4956773;28;20191;-75
2022/08/07 04:35:02;;;;;;;6.37;5.47;;;;;;;;;;4956814;28;20195;-74
2022/08/07 04:37:33;;;;;;;8.80;6.70;;;;;;;;;;4956569;28;20194;-74
2022/08/07 04:40:22;;;;;;;6.23;5.63;;;;;;;;;;4956212;28;20265;-75
2022/08/07 04:42:57;;;;;;;6.57;5.40;;;;;;;;;;4956098;28;20273;-75
2022/08/07 04:45:46;;;;;;;6.60;5.40;;;;;;;;;;4955542;28;20204;-75
2022/08/07 04:48:34;;;;;;;5.67;5.10;;;;;;;;;;4955878;28;20241;-75
2022/08/07 04:51:06;;;;;;;7.50;5.37;;;;;;;;;;4956094;28;20195;-75
2022/08/07 04:53:40;;;;;;;6.53;5.67;;;;;;;;;;4955843;28;20237;-75
2022/08/07 04:56:32;;;;;;;6.37;5.53;;;;;;;;;;4956060;28;20209;-75
2022/08/07 04:59:24;;;;;;;7.93;6.00;;;;;;;;;;4955471;28;20277;-75
2022/08/07 05:02:14;;;;;;;7.00;6.40;;;;;;;;;;4955762;28;20214;-75
2022/08/07 05:04:53;;;;;;;6.80;6.20;;;;;;;;;;4956108;28;20699;-75
2022/08/07 05:07:26;;;;;;;6.80;6.10;;;;;;;;;;4955894;28;20632;-75
2022/08/07 05:10:06;;;;;;;7.07;6.37;;;;;;;;;;4955945;28;20187;-75
2022/08/07 05:12:40;;;;;;;8.87;6.77;;;;;;;;;;4955874;28;20603;-75
2022/08/07 05:15:22;;;;;;;8.27;7.43;;;;;;;;;;4955561;28;20589;-75
2022/08/07 05:17:56;;;;;;;10.07;8.07;;;;;;;;;;4955652;28;20305;-75
2022/08/07 05:20:27;;;;;;;8.87;7.97;;;;;;;;;;4955671;28;20215;-75
2022/08/07 05:23:00;;;;;;;9.87;7.87;;;;;;;;;;4955214;28;20256;-75
2022/08/07 05:25:29;;;;;;;8.13;7.33;;;;;;;;;;4955572;28;20197;-75
2022/08/07 05:28:19;;;;;;;8.47;7.37;;;;;;;;;;4955224;28;20281;-75
2022/08/07 05:30:54;;;;;;;9.30;8.40;;;;;;;;;;4955201;28;20219;-75
2022/08/07 05:33:24;;;;;;;9.70;8.03;;;;;;;;;;4955493;28;20606;-75
2022/08/07 05:35:55;;;;;;;10.57;8.97;;;;;;;;;;4955456;28;20787;-75
2022/08/07 05:38:24;;;;;;;9.80;8.70;;;;;;;;;;4955293;29;20228;-75
2022/08/07 05:41:13;;;;;;;9.30;8.30;;;;;;;;;;4955323;28;20671;-75
2022/08/07 05:43:48;;;;;;;10.27;9.03;;;;;;;;;;4955472;28;20187;-74
2022/08/07 05:46:36;;;;;;;11.00;9.00;;;;;;;;;;4955191;28;20277;-75
2022/08/07 05:49:06;;;;;;;10.97;9.03;;;;;;;;;;4955467;28;20230;-75
2022/08/07 05:51:41;;;;;;;10.10;8.97;;;;;;;;;;4954755;28;20194;-75
2022/08/07 05:54:14;;;;;;;11.70;9.20;;;;;;;;;;4955052;28;20197;-75
2022/08/07 05:56:59;;;;;;;10.87;8.40;;;;;;;;;;4958860;28;20191;-75
2022/08/07 05:59:27;;;;;;;11.13;8.80;;;;;;;;;;4959080;28;20226;-75
2022/08/07 06:02:15;;;;;;;13.73;9.67;;;;;;;;;;4959163;28;20747;-75
2022/08/07 06:04:57;;;;;;;12.70;8.63;;;;;;;;;;4959218;28;20218;-75
2022/08/07 06:07:28;;;;;;;9.53;8.63;;;;;;;;;;4959050;28;20197;-75
2022/08/07 06:10:16;;;;;;;11.07;9.20;;;;;;;;;;4958709;28;20751;-75
2022/08/07 06:12:46;;;;;;;11.00;8.70;;;;;;;;;;4958851;28;20206;-75
2022/08/07 06:15:15;;;;;;;10.13;8.13;;;;;;;;;;4958216;28;20664;-75
2022/08/07 06:17:48;;;;;;;10.57;9.00;;;;;;;;;;4957976;28;20321;-75
2022/08/07 06:20:23;;;;;;;11.47;8.73;;;;;;;;;;4958021;28;20643;-73
2022/08/07 06:23:13;;;;;;;10.03;8.67;;;;;;;;;;4958000;28;20221;-75
2022/08/07 06:26:01;;;;;;;9.73;8.63;;;;;;;;;;4957542;28;20261;-74
2022/08/07 06:28:30;;;;;;;11.27;8.90;;;;;;;;;;4958434;28;20647;-75
2022/08/07 06:30:58;;;;;;;10.53;9.00;;;;;;;;;;4958193;28;20225;-75
2022/08/07 06:33:27;;;;;;;9.50;8.50;;;;;;;;;;4957902;28;20631;-75
2022/08/07 06:36:00;;;;;;;9.23;8.13;;;;;;;;;;4958564;28;20249;-75
2022/08/07 06:38:43;;;;;;;9.30;8.30;;;;;;;;;;4958338;28;20226;-75
2022/08/07 06:41:33;;;;;;;10.73;7.67;;;;;;;;;;4958204;28;20265;-75
2022/08/07 06:44:23;;;;;;;8.37;7.53;;;;;;;;;;4957919;28;20206;-75
2022/08/07 06:46:51;;;;;;;8.70;7.70;;;;;;;;;;4958188;28;20207;-75
2022/08/07 06:49:37;;;;;;;10.20;7.67;;;;;;;;;;4957901;28;20683;-75
2022/08/07 06:52:20;;;;;;;8.33;7.43;;;;;;;;;;4957895;28;20281;-75
2022/08/07 06:55:05;;;;;;;8.30;7.20;;;;;;;;;;4958109;28;20191;-75
2022/08/07 06:57:58;;;;;;;8.00;7.20;;;;;;;;;;4958064;28;20281;-75
2022/08/07 07:00:28;;;;;;;8.60;6.67;;;;;;;;;;4958085;28;20183;-75
2022/08/07 07:02:58;;;;;;;8.43;7.13;;;;;;;;;;4957517;28;20277;-75
2022/08/07 07:05:36;;;;;;;9.13;7.22;;;;;;;;;;4957946;28;20194;-75
2022/08/07 07:08:25;;;;;;;8.03;6.93;;;;;;;;;;4956994;28;20277;-75
2022/08/07 07:10:56;;;;;;;7.97;7.18;;;;;;;;;;4957667;28;20309;-75
2022/08/07 07:13:31;;;;;;;7.93;7.13;;;;;;;;;;4957907;28;20203;-75
2022/08/07 07:16:22;;;;;;;7.32;6.55;;;;;;;;;;4957528;28;20211;-75
2022/08/07 07:18:58;;;;;;;7.30;6.60;;;;;;;;;;4957356;28;20237;-75
2022/08/07 07:21:33;;;;;;;7.63;6.55;;;;;;;;;;4957151;28;20190;-75
2022/08/07 07:24:27;;;;;;;7.65;6.63;;;;;;;;;;4938046;29;20213;-75
2022/08/07 07:27:07;;;;;;;6.75;6.15;;;;;;;;;;4944817;29;20214;-75
2022/08/07 07:29:39;;;;;;;7.60;6.22;;;;;;;;;;4957390;28;20635;-75
2022/08/07 07:32:30;;;;;;;9.63;6.50;;;;;;;;;;4957282;28;20210;-75
2022/08/07 07:35:00;;;;;;;6.13;5.57;;;;;;;;;;4957151;28;20229;-75
2022/08/07 07:37:33;;;;;;;7.05;6.35;;;;;;;;;;4957283;28;20610;-75
2022/08/07 07:40:20;;;;;;;7.07;6.38;;;;;;;;;;4956998;28;20194;-75
2022/08/07 07:42:55;;;;;;;7.72;5.88;;;;;;;;;;4957408;28;20197;-75
2022/08/07 07:45:26;;;;;;;7.53;6.30;;;;;;;;;;4957264;28;20191;-75
2022/08/07 07:48:17;;;;;;;6.18;5.57;;;;;;;;;;4956921;28;20683;-75
2022/08/07 07:51:03;;;;;;;6.55;5.43;;;;;;;;;;4957040;28;20600;-75
2022/08/07 07:53:38;;;;;;;6.10;5.57;;;;;;;;;;4957069;28;20322;-76
2022/08/07 07:56:21;;;;;;;5.70;5.20;;;;;;;;;;4957118;28;20563;-76
2022/08/07 07:59:00;;;;;;;5.28;4.60;;;;;;;;;;4956686;28;20257;-75
2022/08/07 08:01:29;;;;;;;6.57;4.68;;;;;;;;;;4939090;28;20210;-75
2022/08/07 08:04:19;;;;;;;5.85;4.57;;;;;;;;;;4937660;29;20203;-75
2022/08/07 08:06:54;;;;;;;5.55;4.70;;;;;;;;;;4937849;29;20643;-75
2022/08/07 08:09:35;;;;;;;5.93;4.70;;;;;;;;;;4937408;29;20262;-75
2022/08/07 08:12:24;;;;;;;5.22;4.72;;;;;;;;;;4937694;28;20204;-74
2022/08/07 08:15:14;;;;;;;5.80;4.85;;;;;;;;;;4937132;28;20265;-75
2022/08/07 08:17:45;;;;;;;5.68;5.18;;;;;;;;;;4937121;29;20697;-75
2022/08/07 08:20:26;;;;;;;6.10;4.25;;;;;;;;;;4937039;29;20191;-75
2022/08/07 08:28:37;;;;;;;4.03;3.63;;;;;;;;;;4956399;29;20647;-75
2022/08/07 08:31:13;;;;;;;4.50;3.90;;;;;;;;;;4956320;28;20214;-75
2022/08/07 08:33:54;;;;;;;5.40;4.13;;;;;;;;;;4956476;28;20230;-75
2022/08/07 08:36:27;;;;;;;6.82;4.38;;;;;;;;;;4956898;28;20245;-75
2022/08/07 08:38:59;;;;;;;4.30;3.90;;;;;;;;;;4955996;28;20233;-75
2022/08/07 08:41:35;;;;;;;3.90;3.50;;;;;;;;;;4956423;28;20224;-75
2022/08/07 08:44:26;;;;;;;3.80;3.50;;;;;;;;;;4955848;28;20212;-75
2022/08/07 08:47:05;;;;;;;3.70;2.60;;;;;;;;;;4955837;28;20221;-76
2022/08/07 08:49:43;;;;;;;2.67;2.42;;;;;;;;;;4955732;28;20261;-75
2022/08/07 08:52:33;;;;;;;3.10;2.80;;;;;;;;;;4955433;29;20608;-75
2022/08/07 08:55:14;;;;;;;2.97;2.67;;;;;;;;;;4956173;28;20212;-76
2022/08/07 08:58:06;;;;;;;4.90;2.60;;;;;;;;;;4955313;28;20774;-75
2022/08/07 09:00:46;;;;;;;2.80;2.50;;;;;;;;;;4955330;28;20202;-75
2022/08/07 09:03:26;;;;;;;2.72;2.50;;;;;;;;;;4955353;28;20214;-75
2022/08/07 09:06:20;;;;;;;3.63;2.38;;;;;;;;;;4955101;28;20246;-75
2022/08/07 09:08:54;;;;;;;3.30;1.60;;;;;;;;;;4955082;28;20281;-75
2022/08/07 09:11:27;;;;;;;2.63;1.40;;;;;;;;;;4955244;28;20218;-75
2022/08/07 09:14:19;;;;;;;2.13;1.40;;;;;;;;;;4955151;28;20262;-75
2022/08/07 09:16:58;;;;;;;1.23;0.93;;;;;;;;;;4955055;28;20722;-75
2022/08/07 09:19:42;;;;;;;2.30;0.90;;;;;;;;;;4955228;28;20379;-76
2022/08/07 09:22:40;;;;;;;2.10;0.70;;;;;;;;;;4954551;28;20257;-75
2022/08/07 09:25:35;;;;;;;1.63;0.95;;;;;;;;;;4954400;28;20293;-75
2022/08/07 09:28:05;;;;;;;2.55;1.08;;;;;;;;;;4954641;28;20229;-75
2022/08/07 09:30:58;;;;;;;2.05;1.40;;;;;;;;;;4954422;28;20225;-75
2022/08/07 09:33:52;;;;;;;1.48;1.10;;;;;;;;;;4954999;28;20210;-74
2022/08/07 09:36:29;;;;;;;1.30;1.20;;;;;;;;;;4954572;28;20195;-75
2022/08/07 09:39:16;;;;;;;1.42;1.13;;;;;;;;;;4955078;28;20226;-75
2022/08/07 09:42:08;;;;;;;1.67;1.20;;;;;;;;;;4954743;28;20235;-76
2022/08/07 09:44:48;;;;;;;2.17;1.10;;;;;;;;;;4955041;28;20201;-74
2022/08/07 09:47:39;;;;;;;3.17;1.30;;;;;;;;;;4954621;28;20281;-75
2022/08/07 09:50:33;;;;;;;1.45;1.10;;;;;;;;;;4954774;28;20226;-75
2022/08/07 09:53:05;;;;;;;2.55;1.02;;;;;;;;;;4954755;28;20648;-75
2022/08/07 09:55:44;;;;;;;1.67;1.00;;;;;;;;;;4954992;28;20197;-76
2022/08/07 09:58:47;;;;;;;1.60;1.08;;;;;;;;;;4954523;28;20281;-75
2022/08/07 10:01:26;;;;;;;7.53;1.40;;;;;;;;;;4954255;28;20206;-76
2022/08/07 10:04:44;;;;;;;1.33;1.08;;;;;;;;;;4954736;28;20253;-76
2022/08/07 10:07:41;;;;;;;2.03;1.50;;;;;;;;;;4954492;28;20187;-73
2022/08/07 10:10:28;;;;;;;1.08;1.00;;;;;;;;;;4954642;28;20257;-73
2022/08/07 10:21:49;;;;;;;1.75;1.30;;;;;;;;;;5151318;23;20594;-73
2022/08/07 10:24:50;;;;;;;2.25;1.50;;;;;;;;;;4965052;28;20202;-73
2022/08/07 10:27:30;;;;;;;1.98;1.40;;;;;;;;;;4966368;28;20682;-73
2022/08/07 10:30:15;;;;;;;1.95;1.52;;;;;;;;;;4971240;28;20210;-73
2022/08/07 10:32:54;;;;;;;2.38;1.80;;;;;;;;;;4967122;28;20206;-74
2022/08/07 10:35:29;;;;;;;3.58;1.58;;;;;;;;;;4965710;28;20666;-74
2022/08/07 10:38:25;;;;;;;1.42;1.33;;;;;;;;;;4964075;28;20687;-74
2022/08/07 10:41:16;;;;;;;2.00;1.65;;;;;;;;;;4967126;28;20251;-73
2022/08/07 10:44:12;;;;;;;2.42;1.80;;;;;;;;;;4962215;28;20202;-73
2022/08/07 10:46:51;;;;;;;2.05;1.50;;;;;;;;;;4974567;28;20206;-75
2022/08/07 10:49:24;;;;;;;3.03;1.63;;;;;;;;;;4968299;28;20245;-74
2022/08/07 10:52:15;;;;;;;3.70;1.25;;;;;;;;;;4970617;28;20231;-74
2022/08/07 10:54:45;;;;;;;2.67;1.85;;;;;;;;;;4974938;28;20599;-74
2022/08/07 10:57:33;;;;;;;3.40;1.90;;;;;;;;;;4969952;28;20670;-74
2022/08/07 11:03:13;;;;;;;2.50;1.55;;;;;;;;;;4961824;28;20651;-74
2022/08/07 11:05:48;;;;;;;2.10;1.90;;;;;;;;;;4971193;28;20567;-74
2022/08/07 11:08:26;;;;;;;1.65;1.50;;;;;;;;;;4973997;28;20235;-74
2022/08/07 11:11:00;;;;;;;1.67;1.58;;;;;;;;;;4973236;28;20225;-74
2022/08/07 11:13:31;;;;;;;2.03;1.50;;;;;;;;;;4956400;28;20244;-74
2022/08/07 11:16:22;;;;;;;2.28;2.00;;;;;;;;;;4968372;28;20209;-73
2022/08/07 11:19:02;;;;;;;2.20;1.80;;;;;;;;;;4962980;28;20719;-76
2022/08/07 11:21:38;;;;;;;1.95;1.50;;;;;;;;;;4626977;28;10000534;-74
2022/08/07 11:24:13;;;;;;;1.80;1.60;;;;;;;;;;4964969;28;20674;-74
2022/08/07 11:26:47;;;;;;;1.60;1.50;;;;;;;;;;4967325;28;20236;-74
2022/08/07 11:29:22;;;;;;;2.33;1.60;;;;;;;;;;4961093;28;20225;-74
2022/08/07 11:32:15;;;;;;;2.28;1.60;;;;;;;;;;4972580;28;20728;-74
2022/08/07 11:34:56;;;;;;;1.50;1.40;;;;;;;;;;4971613;28;20252;-74
2022/08/07 11:37:32;;;;;;;1.85;1.50;;;;;;;;;;4969157;28;20198;-73
2022/08/07 11:40:27;;;;;;;1.65;1.42;;;;;;;;;;4967912;28;20229;-73
2022/08/07 11:42:59;;;;;;;1.50;1.40;;;;;;;;;;4965378;28;20256;-74
2022/08/07 11:45:35;;;;;;;3.28;1.65;;;;;;;;;;4970652;28;20206;-74
2022/08/07 11:48:16;;;;;;;1.73;1.50;;;;;;;;;;4965324;28;20233;-74
2022/08/07 11:51:03;;;;;;;2.25;1.52;;;;;;;;;;4971813;28;20206;-73
2022/08/07 11:53:45;;;;;;;2.58;1.50;;;;;;;;;;4972447;28;20268;-74
2022/08/07 11:56:36;;;;;;;2.08;1.88;;;;;;;;;;4970890;28;20213;-74
2022/08/07 11:59:15;;;;;;;3.33;1.40;;;;;;;;;;4972914;28;20276;-76
2022/08/07 12:02:13;;;;;;;1.70;1.40;;;;;;;;;;4972845;28;20260;-73
2022/08/07 12:05:02;;;;;;;2.05;1.40;;;;;;;;;;4968648;28;20205;-75
2022/08/07 12:07:39;;;;;;;2.45;2.25;;;;;;;;;;4970514;28;20276;-75
2022/08/07 12:10:18;;;;;;;1.60;1.50;;;;;;;;;;4972026;28;20267;-75
2022/08/07 12:12:53;;;;;;;2.08;1.40;;;;;;;;;;4966775;28;20596;-75
2022/08/07 12:15:24;;;;;;;1.35;1.20;;;;;;;;;;4972012;28;20202;-75
2022/08/07 12:18:14;;;;;;;1.45;1.35;;;;;;;;;;4972542;28;20756;-75
2022/08/07 12:20:58;;;;;;;2.17;1.40;;;;;;;;;;4971865;28;20209;-75
2022/08/07 12:23:35;;;;;;;1.40;1.30;;;;;;;;;;4974144;28;20221;-75
2022/08/07 12:26:27;;;;;;;1.83;1.30;;;;;;;;;;4970707;28;20217;-75
2022/08/07 12:29:12;;;;;;;1.35;1.25;;;;;;;;;;4962615;28;20229;-75
2022/08/07 12:31:42;;;;;;;2.35;1.40;;;;;;;;;;4973417;28;20226;-75
2022/08/07 12:34:33;;;;;;;1.45;1.33;;;;;;;;;;4964963;28;20237;-75
2022/08/07 12:37:04;;;;;;;1.63;1.30;;;;;;;;;;4972897;28;20205;-75
2022/08/07 12:39:37;;;;;;;1.60;1.38;;;;;;;;;;4964900;28;20221;-75
2022/08/07 12:42:11;;;;;;;1.60;1.30;;;;;;;;;;4964204;28;20621;-75
2022/08/07 12:44:41;;;;;;;1.40;1.27;;;;;;;;;;4965918;28;20213;-76
2022/08/07 12:47:16;;;;;;;1.48;1.38;;;;;;;;;;4969636;28;20208;-75
2022/08/07 12:49:58;;;;;;;2.00;1.27;;;;;;;;;;4972398;28;20256;-75
2022/08/07 12:52:49;;;;;;;2.35;1.50;;;;;;;;;;4965497;28;20234;-75
2022/08/07 12:55:23;;;;;;;1.67;1.50;;;;;;;;;;4973166;28;20675;-76
2022/08/07 12:58:10;;;;;;;1.75;1.60;;;;;;;;;;4970416;28;20256;-75
2022/08/07 13:00:46;;;;;;;1.60;1.45;;;;;;;;;;4624675;28;9999983;-75
2022/08/07 13:03:27;;;;;;;1.75;1.60;;;;;;;;;;4961946;28;20197;-75
2022/08/07 13:06:18;;;;;;;1.75;1.40;;;;;;;;;;4966987;28;20284;-76
2022/08/07 13:09:00;;;;;;;3.22;1.45;;;;;;;;;;4965851;28;20871;-76
2022/08/07 13:11:48;;;;;;;1.58;1.48;;;;;;;;;;4970076;28;20241;-75
2022/08/07 13:14:43;;;;;;;1.50;1.40;;;;;;;;;;4968904;28;20614;-73
2022/08/07 13:17:22;;;;;;;1.98;1.45;;;;;;;;;;4969234;28;20315;-74
2022/08/07 13:20:10;;;;;;;1.80;1.40;;;;;;;;;;4970852;28;20226;-75
2022/08/07 13:22:42;;;;;;;2.70;1.40;;;;;;;;;;4962615;28;20201;-75
2022/08/07 13:25:26;;;;;;;1.75;1.60;;;;;;;;;;4963389;28;20206;-75
2022/08/07 13:28:01;;;;;;;1.48;1.38;;;;;;;;;;4967627;28;20221;-75
2022/08/07 13:30:48;;;;;;;1.40;1.30;;;;;;;;;;4969382;28;20209;-73
2022/08/07 13:33:25;;;;;;;1.67;1.38;;;;;;;;;;4962267;28;20732;-73
2022/08/07 13:36:17;;;;;;;1.50;1.40;;;;;;;;;;4965703;28;20260;-73
2022/08/07 13:38:51;;;;;;;1.65;1.42;;;;;;;;;;4967697;28;20233;-73
2022/08/07 13:41:29;;;;;;;1.60;1.50;;;;;;;;;;4968106;28;20217;-74
2022/08/07 13:44:01;;;;;;;1.65;1.30;;;;;;;;;;4968231;28;20193;-73
2022/08/07 13:46:33;;;;;;;1.90;1.52;;;;;;;;;;4969266;28;20206;-73
2022/08/07 13:49:17;;;;;;;1.92;1.48;;;;;;;;;;4965552;28;20224;-74
2022/08/07 13:52:07;;;;;;;1.95;1.50;;;;;;;;;;4965946;28;20261;-73
2022/08/07 13:54:56;;;;;;;2.75;1.40;;;;;;;;;;4968169;28;20213;-73
2022/08/07 13:57:28;;;;;;;1.58;1.48;;;;;;;;;;4968257;28;20206;-73
2022/08/07 14:00:07;;;;;;;1.50;1.40;;;;;;;;;;4969913;28;20220;-74
2022/08/07 14:02:56;;;;;;;1.40;1.30;;;;;;;;;;4968539;28;20705;-73
2022/08/07 14:05:26;;;;;;;2.10;1.40;;;;;;;;;;4969178;28;20305;-73
2022/08/07 14:08:06;;;;;;;3.00;1.40;;;;;;;;;;4972507;28;20233;-73
2022/08/07 14:10:36;;;;;;;1.55;1.45;;;;;;;;;;4972490;28;20630;-74
2022/08/07 14:13:14;;;;;;;1.55;1.45;;;;;;;;;;4971773;28;20221;-73
2022/08/07 14:15:44;;;;;;;2.45;1.52;;;;;;;;;;4968726;28;20599;-73
2022/08/07 14:18:20;;;;;;;1.55;1.38;;;;;;;;;;4973261;28;20308;-73
2022/08/07 14:21:02;;;;;;;1.55;1.42;;;;;;;;;;4975972;28;20708;-73
2022/08/07 14:23:49;;;;;;;2.55;1.40;;;;;;;;;;4975015;28;20268;-73
2022/08/07 14:26:33;;;;;;;1.60;1.50;;;;;;;;;;4974560;28;20674;-73
2022/08/07 14:29:05;;;;;;;1.70;1.60;;;;;;;;;;4974628;28;20653;-74
2022/08/07 14:31:54;;;;;;;2.35;1.60;;;;;;;;;;4968061;28;20214;-74
2022/08/07 14:34:26;;;;;;;3.15;1.42;;;;;;;;;;4966681;28;20264;-73
2022/08/07 14:36:58;;;;;;;3.50;1.60;;;;;;;;;;4971605;28;20737;-73
2022/08/07 14:39:32;;;;;;;2.35;1.65;;;;;;;;;;4974390;28;20232;-73
2022/08/07 14:42:26;;;;;;;1.88;1.63;;;;;;;;;;4967893;28;20206;-73
2022/08/07 14:45:01;;;;;;;1.67;1.58;;;;;;;;;;4970438;28;20229;-73
2022/08/07 14:47:50;;;;;;;2.28;1.67;;;;;;;;;;4974307;28;20229;-73
2022/08/07 14:50:26;;;;;;;2.10;1.90;;;;;;;;;;4968363;28;20209;-73
2022/08/07 14:52:56;;;;;;;2.40;1.60;;;;;;;;;;4965171;28;20281;-73
2022/08/07 14:55:46;;;;;;;1.73;1.63;;;;;;;;;;4972747;28;20206;-74
2022/08/07 14:58:38;;;;;;;1.98;1.73;;;;;;;;;;4967880;28;20226;-73
2022/08/07 15:01:12;;;;;;;1.50;1.40;;;;;;;;;;4971289;28;20228;-73
2022/08/07 15:03:52;;;;;;;3.92;1.60;;;;;;;;;;4962226;28;20205;-73
2022/08/07 15:06:23;;;;;;;2.08;1.90;;;;;;;;;;4975654;28;20210;-73
2022/08/07 15:08:53;;;;;;;1.80;1.60;;;;;;;;;;4972737;28;20218;-74
2022/08/07 15:11:25;;;;;;;1.90;1.60;;;;;;;;;;4972976;28;20201;-73
2022/08/07 15:14:17;;;;;;;2.10;1.77;;;;;;;;;;4967606;28;20229;-73
2022/08/07 15:16:47;;;;;;;1.88;1.70;;;;;;;;;;4969353;28;20206;-73
2022/08/07 15:19:24;;;;;;;2.67;1.80;;;;;;;;;;4968235;28;20313;-73
2022/08/07 15:22:13;;;;;;;2.42;1.75;;;;;;;;;;4973322;28;20210;-73
2022/08/07 15:25:02;;;;;;;2.35;1.58;;;;;;;;;;4974977;28;20281;-73
2022/08/07 15:27:49;;;;;;;1.98;1.70;;;;;;;;;;4972850;28;20226;-74
2022/08/07 15:30:37;;;;;;;1.67;1.58;;;;;;;;;;4970743;28;20633;-74
2022/08/07 15:33:27;;;;;;;1.73;1.63;;;;;;;;;;4967235;28;20568;-73
2022/08/07 15:36:03;;;;;;;2.22;1.60;;;;;;;;;;4974740;28;20198;-74
2022/08/07 15:38:34;;;;;;;2.65;1.73;;;;;;;;;;4971976;28;20234;-73
2022/08/07 15:41:23;;;;;;;2.55;1.70;;;;;;;;;;4973049;28;20265;-74
2022/08/07 15:44:13;;;;;;;1.92;1.60;;;;;;;;;;4962441;28;20293;-73
2022/08/07 15:46:43;;;;;;;2.45;1.80;;;;;;;;;;4974269;28;20209;-73
2022/08/07 15:49:25;;;;;;;3.25;1.60;;;;;;;;;;4974314;28;20686;-74
2022/08/07 15:52:14;;;;;;;3.25;1.77;;;;;;;;;;4971679;28;20213;-74
2022/08/07 15:54:44;;;;;;;2.00;1.67;;;;;;;;;;4968644;28;20577;-74
2022/08/07 15:57:15;;;;;;;1.88;1.77;;;;;;;;;;4971274;28;20201;-74
2022/08/07 16:00:05;;;;;;;2.65;1.58;;;;;;;;;;4970267;28;20241;-74
2022/08/07 16:02:39;;;;;;;3.03;1.80;;;;;;;;;;4969644;28;20225;-74
2022/08/07 16:05:11;;;;;;;3.05;1.70;;;;;;;;;;4970347;28;20202;-74
2022/08/07 16:07:43;;;;;;;2.05;1.85;;;;;;;;;;4961980;28;20240;-74
2022/08/07 16:10:35;;;;;;;2.47;1.80;;;;;;;;;;4968213;28;20198;-74
2022/08/07 16:13:12;;;;;;;2.20;2.00;;;;;;;;;;4967877;28;20289;-73